sensor_id;sensor_type;location;lat;lon;timestamp;pressure;altitude;pressure_sealevel;temperature;humidity
73516;BME280;61763;51.416;5.442;2022-08-21T00:00:25;101635.88;;;12.42;100.00
73516;BME280;61763;51.416;5.442;2022-08-21T00:02:57;101639.75;;;12.37;100.00
73516;BME280;61763;51.416;5.442;2022-08-21T00:05:23;101627.22;;;12.34;100.00
73516;BME280;61763;51.416;5.442;2022-08-21T00:07:50;101637.19;;;12.34;100.00
73516;BME280;61763;51.416;5.442;2022-08-21T00:10:16;101635.34;;;12.34;100.00
73516;BME280;61763;51.416;5.442;2022-08-21T00:12:42;101635.41;;;12.33;100.00
73516;BME280;61763;51.416;5.442;2022-08-21T00:15:10;101629.38;;;12.26;100.00
73516;BME280;61763;51.416;5.442;2022-08-21T00:17:35;101633.13;;;12.23;100.00
73516;BME280;61763;51.416;5.442;2022-08-21T00:20:04;101637.78;;;12.20;100.00
73516;BME280;61763;51.416;5.442;2022-08-21T00:22:29;101624.41;;;12.17;100.00
73516;BME280;61763;51.416;5.442;2022-08-21T00:24:55;101636.31;;;12.13;100.00
73516;BME280;61763;51.416;5.442;2022-08-21T00:27:20;101630.97;;;12.11;100.00
73516;BME280;61763;51.416;5.442;2022-08-21T00:29:45;101623.84;;;12.08;100.00
73516;BME280;61763;51.416;5.442;2022-08-21T00:32:11;101625.53;;;12.11;100.00
73516;BME280;61763;51.416;5.442;2022-08-21T00:34:36;101633.47;;;12.16;100.00
73516;BME280;61763;51.416;5.442;2022-08-21T00:37:02;101625.47;;;12.13;100.00
73516;BME280;61763;51.416;5.442;2022-08-21T00:39:27;101624.81;;;12.07;100.00
73516;BME280;61763;51.416;5.442;2022-08-21T00:41:52;101615.06;;;12.03;100.00
73516;BME280;61763;51.416;5.442;2022-08-21T00:44:18;101614.22;;;12.03;100.00
73516;BME280;61763;51.416;5.442;2022-08-21T00:46:43;101617.91;;;12.00;100.00
73516;BME280;61763;51.416;5.442;2022-08-21T00:49:10;101614.25;;;12.01;100.00
73516;BME280;61763;51.416;5.442;2022-08-21T00:51:45;101612.66;;;11.97;100.00
73516;BME280;61763;51.416;5.442;2022-08-21T00:54:13;101616.47;;;11.91;100.00
73516;BME280;61763;51.416;5.442;2022-08-21T00:56:40;101615.69;;;11.88;100.00
73516;BME280;61763;51.416;5.442;2022-08-21T00:59:06;101616.81;;;11.84;100.00
73516;BME280;61763;51.416;5.442;2022-08-21T01:01:31;101616.97;;;11.79;100.00
73516;BME280;61763;51.416;5.442;2022-08-21T01:03:57;101608.94;;;11.78;100.00
73516;BME280;61763;51.416;5.442;2022-08-21T01:06:22;101618.88;;;11.77;100.00
73516;BME280;61763;51.416;5.442;2022-08-21T01:08:48;101608.19;;;11.74;100.00
73516;BME280;61763;51.416;5.442;2022-08-21T01:11:15;101615.38;;;11.75;100.00
73516;BME280;61763;51.416;5.442;2022-08-21T01:13:40;101605.69;;;11.69;100.00
73516;BME280;61763;51.416;5.442;2022-08-21T01:16:11;101618.16;;;11.73;100.00
73516;BME280;61763;51.416;5.442;2022-08-21T01:18:37;101623.22;;;11.81;100.00
73516;BME280;61763;51.416;5.442;2022-08-21T01:21:28;101611.25;;;11.87;100.00
73516;BME280;61763;51.416;5.442;2022-08-21T01:23:56;101612.19;;;11.86;100.00
73516;BME280;61763;51.416;5.442;2022-08-21T01:26:26;101607.00;;;11.81;100.00
73516;BME280;61763;51.416;5.442;2022-08-21T01:29:00;101602.59;;;11.79;100.00
73516;BME280;61763;51.416;5.442;2022-08-21T01:31:28;101604.63;;;11.73;100.00
73516;BME280;61763;51.416;5.442;2022-08-21T01:33:55;101613.59;;;11.74;100.00
73516;BME280;61763;51.416;5.442;2022-08-21T01:36:21;101603.72;;;11.73;100.00
73516;BME280;61763;51.416;5.442;2022-08-21T01:38:47;101610.16;;;11.70;100.00
73516;BME280;61763;51.416;5.442;2022-08-21T01:41:14;101610.16;;;11.70;100.00
73516;BME280;61763;51.416;5.442;2022-08-21T01:43:41;101606.22;;;11.78;100.00
73516;BME280;61763;51.416;5.442;2022-08-21T01:46:08;101605.28;;;11.79;100.00
73516;BME280;61763;51.416;5.442;2022-08-21T01:48:35;101611.84;;;11.73;100.00
73516;BME280;61763;51.416;5.442;2022-08-21T01:51:01;101604.78;;;11.69;100.00
73516;BME280;61763;51.416;5.442;2022-08-21T01:53:26;101610.34;;;11.66;100.00
73516;BME280;61763;51.416;5.442;2022-08-21T01:55:52;101608.72;;;11.62;100.00
73516;BME280;61763;51.416;5.442;2022-08-21T01:58:17;101599.06;;;11.56;100.00
73516;BME280;61763;51.416;5.442;2022-08-21T02:00:42;101600.00;;;11.55;100.00
73516;BME280;61763;51.416;5.442;2022-08-21T02:03:08;101595.72;;;11.49;100.00
73516;BME280;61763;51.416;5.442;2022-08-21T02:05:33;101590.31;;;11.49;100.00
73516;BME280;61763;51.416;5.442;2022-08-21T02:08:00;101590.44;;;11.46;100.00
73516;BME280;61763;51.416;5.442;2022-08-21T02:10:29;101584.38;;;11.41;100.00
73516;BME280;61763;51.416;5.442;2022-08-21T02:12:56;101589.84;;;11.39;100.00
73516;BME280;61763;51.416;5.442;2022-08-21T02:15:22;101585.38;;;11.38;100.00
73516;BME280;61763;51.416;5.442;2022-08-21T02:17:54;101593.59;;;11.35;100.00
73516;BME280;61763;51.416;5.442;2022-08-21T02:20:30;101589.84;;;11.39;100.00
73516;BME280;61763;51.416;5.442;2022-08-21T02:22:57;101585.31;;;11.40;100.00
73516;BME280;61763;51.416;5.442;2022-08-21T02:25:25;101587.00;;;11.43;100.00
73516;BME280;61763;51.416;5.442;2022-08-21T02:27:51;101589.78;;;11.41;100.00
73516;BME280;61763;51.416;5.442;2022-08-21T02:30:26;101584.78;;;11.52;100.00
73516;BME280;61763;51.416;5.442;2022-08-21T02:32:53;101587.09;;;11.62;100.00
73516;BME280;61763;51.416;5.442;2022-08-21T02:35:19;101580.88;;;11.60;100.00
73516;BME280;61763;51.416;5.442;2022-08-21T02:37:50;101585.06;;;11.67;100.00
73516;BME280;61763;51.416;5.442;2022-08-21T02:40:19;101577.81;;;11.67;100.00
73516;BME280;61763;51.416;5.442;2022-08-21T02:42:45;101577.97;;;11.64;100.00
73516;BME280;61763;51.416;5.442;2022-08-21T02:45:12;101583.22;;;11.67;100.00
73516;BME280;61763;51.416;5.442;2022-08-21T02:47:39;101584.72;;;11.74;100.00
73516;BME280;61763;51.416;5.442;2022-08-21T02:50:06;101583.72;;;11.77;100.00
73516;BME280;61763;51.416;5.442;2022-08-21T02:52:31;101586.78;;;11.90;100.00
73516;BME280;61763;51.416;5.442;2022-08-21T02:54:58;101590.13;;;11.74;100.00
73516;BME280;61763;51.416;5.442;2022-08-21T02:57:24;101593.19;;;11.67;100.00
73516;BME280;61763;51.416;5.442;2022-08-21T02:59:49;101583.38;;;11.64;100.00
73516;BME280;61763;51.416;5.442;2022-08-21T03:02:14;101581.56;;;11.65;100.00
73516;BME280;61763;51.416;5.442;2022-08-21T03:04:39;101587.28;;;11.57;100.00
73516;BME280;61763;51.416;5.442;2022-08-21T03:07:05;101592.44;;;11.63;100.00
73516;BME280;61763;51.416;5.442;2022-08-21T03:09:30;101585.41;;;11.59;100.00
73516;BME280;61763;51.416;5.442;2022-08-21T03:11:56;101576.53;;;11.55;100.00
73516;BME280;61763;51.416;5.442;2022-08-21T03:14:21;101581.13;;;11.53;100.00
73516;BME280;61763;51.416;5.442;2022-08-21T03:16:46;101576.94;;;11.46;100.00
73516;BME280;61763;51.416;5.442;2022-08-21T03:19:12;101580.97;;;11.36;100.00
73516;BME280;61763;51.416;5.442;2022-08-21T03:21:38;101580.22;;;11.32;100.00
73516;BME280;61763;51.416;5.442;2022-08-21T03:24:03;101588.50;;;11.28;100.00
73516;BME280;61763;51.416;5.442;2022-08-21T03:26:30;101579.78;;;11.21;100.00
73516;BME280;61763;51.416;5.442;2022-08-21T03:28:56;101577.22;;;11.18;100.00
73516;BME280;61763;51.416;5.442;2022-08-21T03:31:23;101579.28;;;11.11;100.00
73516;BME280;61763;51.416;5.442;2022-08-21T03:33:48;101579.41;;;11.08;100.00
73516;BME280;61763;51.416;5.442;2022-08-21T03:36:15;101578.78;;;11.01;100.00
73516;BME280;61763;51.416;5.442;2022-08-21T03:38:41;101570.97;;;10.94;100.00
73516;BME280;61763;51.416;5.442;2022-08-21T03:41:07;101572.06;;;10.90;100.00
73516;BME280;61763;51.416;5.442;2022-08-21T03:43:33;101580.31;;;10.85;100.00
73516;BME280;61763;51.416;5.442;2022-08-21T03:46:01;101582.22;;;10.83;100.00
73516;BME280;61763;51.416;5.442;2022-08-21T03:48:27;101578.78;;;10.79;100.00
73516;BME280;61763;51.416;5.442;2022-08-21T03:50:52;101577.25;;;10.72;100.00
73516;BME280;61763;51.416;5.442;2022-08-21T03:53:18;101578.25;;;10.69;100.00
73516;BME280;61763;51.416;5.442;2022-08-21T03:55:45;101578.97;;;10.73;100.00
73516;BME280;61763;51.416;5.442;2022-08-21T03:58:13;101573.59;;;10.73;100.00
73516;BME280;61763;51.416;5.442;2022-08-21T04:00:39;101570.09;;;10.93;100.00
73516;BME280;61763;51.416;5.442;2022-08-21T04:03:04;101573.97;;;10.86;100.00
73516;BME280;61763;51.416;5.442;2022-08-21T04:05:31;101564.94;;;10.87;100.00
73516;BME280;61763;51.416;5.442;2022-08-21T04:08:00;101571.22;;;10.87;100.00
73516;BME280;61763;51.416;5.442;2022-08-21T04:10:27;101577.75;;;10.82;100.00
73516;BME280;61763;51.416;5.442;2022-08-21T04:12:53;101580.31;;;10.85;100.00
73516;BME280;61763;51.416;5.442;2022-08-21T04:15:20;101574.06;;;10.84;100.00
73516;BME280;61763;51.416;5.442;2022-08-21T04:17:45;101577.47;;;10.90;100.00
73516;BME280;61763;51.416;5.442;2022-08-21T04:20:11;101575.56;;;10.92;100.00
73516;BME280;61763;51.416;5.442;2022-08-21T04:22:37;101581.03;;;10.90;100.00
73516;BME280;61763;51.416;5.442;2022-08-21T04:25:03;101582.81;;;10.91;100.00
73516;BME280;61763;51.416;5.442;2022-08-21T04:27:28;101577.41;;;10.91;100.00
73516;BME280;61763;51.416;5.442;2022-08-21T04:29:54;101577.94;;;10.99;100.00
73516;BME280;61763;51.416;5.442;2022-08-21T04:32:25;101585.88;;;11.04;100.00
73516;BME280;61763;51.416;5.442;2022-08-21T04:34:56;101583.28;;;11.01;100.00
73516;BME280;61763;51.416;5.442;2022-08-21T04:37:22;101592.28;;;11.01;100.00
73516;BME280;61763;51.416;5.442;2022-08-21T04:39:47;101592.22;;;11.03;100.00
73516;BME280;61763;51.416;5.442;2022-08-21T04:42:13;101599.81;;;11.15;100.00
73516;BME280;61763;51.416;5.442;2022-08-21T04:44:39;101594.56;;;11.12;100.00
73516;BME280;61763;51.416;5.442;2022-08-21T04:47:04;101592.16;;;11.04;100.00
73516;BME280;61763;51.416;5.442;2022-08-21T04:49:30;101595.13;;;10.98;100.00
73516;BME280;61763;51.416;5.442;2022-08-21T04:51:56;101598.81;;;10.96;100.00
73516;BME280;61763;51.416;5.442;2022-08-21T04:54:22;101601.50;;;10.96;100.00
73516;BME280;61763;51.416;5.442;2022-08-21T04:56:52;101597.88;;;10.97;100.00
73516;BME280;61763;51.416;5.442;2022-08-21T04:59:24;101598.75;;;10.97;100.00
73516;BME280;61763;51.416;5.442;2022-08-21T05:01:51;101597.75;;;11.00;100.00
73516;BME280;61763;51.416;5.442;2022-08-21T05:04:25;101603.16;;;11.00;100.00
73516;BME280;61763;51.416;5.442;2022-08-21T05:06:54;101599.69;;;10.96;100.00
73516;BME280;61763;51.416;5.442;2022-08-21T05:09:23;101603.03;;;11.03;100.00
73516;BME280;61763;51.416;5.442;2022-08-21T05:11:49;101603.09;;;11.01;100.00
73516;BME280;61763;51.416;5.442;2022-08-21T05:14:16;101597.25;;;11.12;100.00
73516;BME280;61763;51.416;5.442;2022-08-21T05:16:42;101604.69;;;11.07;100.00
73516;BME280;61763;51.416;5.442;2022-08-21T05:19:09;101609.56;;;11.19;100.00
73516;BME280;61763;51.416;5.442;2022-08-21T05:21:36;101610.31;;;11.23;100.00
73516;BME280;61763;51.416;5.442;2022-08-21T05:24:02;101611.81;;;11.30;100.00
73516;BME280;61763;51.416;5.442;2022-08-21T05:26:28;101616.66;;;11.44;100.00
73516;BME280;61763;51.416;5.442;2022-08-21T05:28:53;101605.41;;;11.55;100.00
73516;BME280;61763;51.416;5.442;2022-08-21T05:31:18;101612.03;;;11.68;100.00
73516;BME280;61763;51.416;5.442;2022-08-21T05:33:44;101612.25;;;11.84;100.00
73516;BME280;61763;51.416;5.442;2022-08-21T05:36:09;101611.88;;;11.94;100.00
73516;BME280;61763;51.416;5.442;2022-08-21T05:38:34;101613.31;;;12.02;100.00
73516;BME280;61763;51.416;5.442;2022-08-21T05:41:00;101610.59;;;12.23;100.00
73516;BME280;61763;51.416;5.442;2022-08-21T05:43:25;101614.31;;;12.20;100.00
73516;BME280;61763;51.416;5.442;2022-08-21T05:45:53;101615.94;;;12.24;100.00
73516;BME280;61763;51.416;5.442;2022-08-21T05:48:22;101617.47;;;12.30;100.00
73516;BME280;61763;51.416;5.442;2022-08-21T05:50:49;101615.47;;;12.35;100.00
73516;BME280;61763;51.416;5.442;2022-08-21T05:53:15;101620.75;;;12.38;100.00
73516;BME280;61763;51.416;5.442;2022-08-21T05:55:41;101616.28;;;12.56;100.00
73516;BME280;61763;51.416;5.442;2022-08-21T05:58:07;101621.34;;;12.64;99.73
73516;BME280;61763;51.416;5.442;2022-08-21T06:00:32;101619.38;;;12.68;98.82
73516;BME280;61763;51.416;5.442;2022-08-21T06:02:58;101617.56;;;12.68;99.56
73516;BME280;61763;51.416;5.442;2022-08-21T06:05:23;101609.50;;;12.67;98.75
73516;BME280;61763;51.416;5.442;2022-08-21T06:07:49;101621.44;;;12.82;99.04
73516;BME280;61763;51.416;5.442;2022-08-21T06:10:14;101620.13;;;13.09;95.86
73516;BME280;61763;51.416;5.442;2022-08-21T06:12:40;101617.75;;;13.21;95.28
73516;BME280;61763;51.416;5.442;2022-08-21T06:15:06;101625.28;;;13.33;94.14
73516;BME280;61763;51.416;5.442;2022-08-21T06:17:31;101625.97;;;13.56;92.49
73516;BME280;61763;51.416;5.442;2022-08-21T06:19:57;101625.19;;;13.54;92.65
73516;BME280;61763;51.416;5.442;2022-08-21T06:22:22;101625.38;;;13.68;92.82
73516;BME280;61763;51.416;5.442;2022-08-21T06:24:48;101624.75;;;13.80;91.45
73516;BME280;61763;51.416;5.442;2022-08-21T06:27:13;101619.56;;;13.93;91.62
73516;BME280;61763;51.416;5.442;2022-08-21T06:29:40;101613.00;;;14.15;91.30
73516;BME280;61763;51.416;5.442;2022-08-21T06:32:06;101618.34;;;14.34;89.31
73516;BME280;61763;51.416;5.442;2022-08-21T06:34:38;101623.47;;;14.56;88.74
73516;BME280;61763;51.416;5.442;2022-08-21T06:37:04;101617.72;;;14.62;88.09
73516;BME280;61763;51.416;5.442;2022-08-21T06:39:30;101623.69;;;14.69;87.82
73516;BME280;61763;51.416;5.442;2022-08-21T06:41:56;101620.66;;;14.91;86.75
73516;BME280;61763;51.416;5.442;2022-08-21T06:44:21;101612.50;;;14.91;87.49
73516;BME280;61763;51.416;5.442;2022-08-21T06:46:47;101611.81;;;15.03;86.13
73516;BME280;61763;51.416;5.442;2022-08-21T06:49:13;101614.28;;;15.24;85.58
73516;BME280;61763;51.416;5.442;2022-08-21T06:51:40;101618.91;;;15.38;85.86
73516;BME280;61763;51.416;5.442;2022-08-21T06:54:06;101611.16;;;15.62;84.64
73516;BME280;61763;51.416;5.442;2022-08-21T06:56:31;101614.09;;;15.73;84.46
73516;BME280;61763;51.416;5.442;2022-08-21T06:58:58;101613.31;;;15.87;83.78
73516;BME280;61763;51.416;5.442;2022-08-21T07:01:26;101615.06;;;16.03;83.33
73516;BME280;61763;51.416;5.442;2022-08-21T07:03:52;101609.56;;;16.19;83.01
73516;BME280;61763;51.416;5.442;2022-08-21T07:06:17;101612.59;;;16.43;81.17
73516;BME280;61763;51.416;5.442;2022-08-21T07:08:43;101621.06;;;16.53;81.04
73516;BME280;61763;51.416;5.442;2022-08-21T07:11:20;101610.38;;;16.64;80.29
73516;BME280;61763;51.416;5.442;2022-08-21T07:13:47;101611.69;;;16.86;79.77
73516;BME280;61763;51.416;5.442;2022-08-21T07:16:13;101609.28;;;17.10;78.68
73516;BME280;61763;51.416;5.442;2022-08-21T07:18:39;101607.88;;;17.31;78.24
73516;BME280;61763;51.416;5.442;2022-08-21T07:21:06;101600.72;;;17.56;77.95
73516;BME280;61763;51.416;5.442;2022-08-21T07:23:34;101600.81;;;17.82;76.62
73516;BME280;61763;51.416;5.442;2022-08-21T07:26:00;101604.38;;;17.97;76.41
73516;BME280;61763;51.416;5.442;2022-08-21T07:28:27;101611.03;;;18.06;76.30
73516;BME280;61763;51.416;5.442;2022-08-21T07:30:56;101608.44;;;18.17;75.51
73516;BME280;61763;51.416;5.442;2022-08-21T07:33:23;101608.66;;;18.14;74.91
73516;BME280;61763;51.416;5.442;2022-08-21T07:35:49;101608.31;;;18.06;75.47
73516;BME280;61763;51.416;5.442;2022-08-21T07:38:15;101610.50;;;18.13;75.42
73516;BME280;61763;51.416;5.442;2022-08-21T07:40:40;101609.84;;;18.10;75.57
73516;BME280;61763;51.416;5.442;2022-08-21T07:43:06;101610.56;;;17.99;76.35
73516;BME280;61763;51.416;5.442;2022-08-21T07:45:31;101611.16;;;18.04;75.93
73516;BME280;61763;51.416;5.442;2022-08-21T07:47:57;101605.16;;;18.25;75.13
73516;BME280;61763;51.416;5.442;2022-08-21T07:50:23;101611.91;;;18.58;74.42
73516;BME280;61763;51.416;5.442;2022-08-21T07:52:48;101609.63;;;18.77;73.35
73516;BME280;61763;51.416;5.442;2022-08-21T07:55:16;101606.66;;;18.80;73.51
73516;BME280;61763;51.416;5.442;2022-08-21T07:57:42;101601.81;;;19.10;72.97
73516;BME280;61763;51.416;5.442;2022-08-21T08:00:11;101601.00;;;19.20;71.04
73516;BME280;61763;51.416;5.442;2022-08-21T08:02:37;101603.28;;;19.14;71.27
73516;BME280;61763;51.416;5.442;2022-08-21T08:05:05;101605.88;;;18.91;71.52
73516;BME280;61763;51.416;5.442;2022-08-21T08:07:31;101603.13;;;19.04;71.68
73516;BME280;61763;51.416;5.442;2022-08-21T08:09:57;101602.63;;;19.23;71.10
73516;BME280;61763;51.416;5.442;2022-08-21T08:12:23;101600.34;;;19.41;70.25
73516;BME280;61763;51.416;5.442;2022-08-21T08:14:54;101600.31;;;19.54;69.84
73516;BME280;61763;51.416;5.442;2022-08-21T08:17:19;101591.72;;;19.58;69.20
73516;BME280;61763;51.416;5.442;2022-08-21T08:19:48;101597.03;;;19.73;68.26
73516;BME280;61763;51.416;5.442;2022-08-21T08:22:16;101597.72;;;19.64;69.00
73516;BME280;61763;51.416;5.442;2022-08-21T08:24:45;101602.25;;;20.00;68.66
73516;BME280;61763;51.416;5.442;2022-08-21T08:27:10;101594.75;;;20.02;68.16
73516;BME280;61763;51.416;5.442;2022-08-21T08:29:37;101594.44;;;20.07;67.31
73516;BME280;61763;51.416;5.442;2022-08-21T08:32:04;101594.59;;;20.51;65.54
73516;BME280;61763;51.416;5.442;2022-08-21T08:34:29;101593.13;;;20.46;65.48
73516;BME280;61763;51.416;5.442;2022-08-21T08:36:55;101595.47;;;20.62;65.84
73516;BME280;61763;51.416;5.442;2022-08-21T08:39:22;101585.53;;;20.84;64.64
73516;BME280;61763;51.416;5.442;2022-08-21T08:41:48;101589.38;;;20.93;63.63
73516;BME280;61763;51.416;5.442;2022-08-21T08:44:16;101590.69;;;21.21;62.81
73516;BME280;61763;51.416;5.442;2022-08-21T08:46:44;101587.09;;;21.85;62.42
73516;BME280;61763;51.416;5.442;2022-08-21T08:49:23;101575.47;;;22.14;59.62
73516;BME280;61763;51.416;5.442;2022-08-21T08:52:00;101586.91;;;22.19;59.65
73516;BME280;61763;51.416;5.442;2022-08-21T08:54:43;101575.69;;;22.11;59.61
73516;BME280;61763;51.416;5.442;2022-08-21T08:57:16;101572.25;;;21.88;60.65
73516;BME280;61763;51.416;5.442;2022-08-21T08:59:53;101569.97;;;22.35;59.79
73516;BME280;61763;51.416;5.442;2022-08-21T09:02:21;101566.03;;;22.17;58.61
73516;BME280;61763;51.416;5.442;2022-08-21T09:04:50;101564.59;;;22.34;58.59
73516;BME280;61763;51.416;5.442;2022-08-21T09:15:30;101561.63;;;21.62;60.71
73516;BME280;61763;51.416;5.442;2022-08-21T09:23:36;101565.41;;;21.82;58.36
73516;BME280;61763;51.416;5.442;2022-08-21T09:26:14;101564.38;;;21.62;57.60
73516;BME280;61763;51.416;5.442;2022-08-21T09:28:40;101556.00;;;21.64;58.31
73516;BME280;61763;51.416;5.442;2022-08-21T09:31:33;101554.28;;;21.63;58.78
73516;BME280;61763;51.416;5.442;2022-08-21T09:34:05;101559.63;;;21.85;56.37
73516;BME280;61763;51.416;5.442;2022-08-21T09:36:44;101552.38;;;22.27;55.72
73516;BME280;61763;51.416;5.442;2022-08-21T09:39:11;101558.41;;;22.42;54.00
73516;BME280;61763;51.416;5.442;2022-08-21T09:41:37;101563.06;;;22.91;53.04
73516;BME280;61763;51.416;5.442;2022-08-21T09:44:05;101565.88;;;23.01;52.75
73516;BME280;61763;51.416;5.442;2022-08-21T09:46:30;101555.94;;;23.10;52.56
73516;BME280;61763;51.416;5.442;2022-08-21T09:48:58;101559.47;;;23.01;53.17
73516;BME280;61763;51.416;5.442;2022-08-21T09:51:30;101556.91;;;23.19;51.19
73516;BME280;61763;51.416;5.442;2022-08-21T09:54:00;101556.22;;;23.36;52.73
73516;BME280;61763;51.416;5.442;2022-08-21T09:56:50;101554.97;;;22.90;53.69
73516;BME280;61763;51.416;5.442;2022-08-21T09:59:35;101557.72;;;22.90;54.23
73516;BME280;61763;51.416;5.442;2022-08-21T10:05:06;101556.50;;;22.73;55.14
73516;BME280;61763;51.416;5.442;2022-08-21T10:07:32;101549.31;;;22.91;53.26
73516;BME280;61763;51.416;5.442;2022-08-21T10:10:08;101549.56;;;22.69;54.27
73516;BME280;61763;51.416;5.442;2022-08-21T10:15:39;101551.31;;;23.89;50.33
73516;BME280;61763;51.416;5.442;2022-08-21T10:18:56;101556.97;;;23.38;49.94
73516;BME280;61763;51.416;5.442;2022-08-21T10:27:12;101548.38;;;23.80;48.86
73516;BME280;61763;51.416;5.442;2022-08-21T10:35:12;101536.94;;;24.42;47.19
73516;BME280;61763;51.416;5.442;2022-08-21T10:40:34;101542.03;;;24.37;46.37
73516;BME280;61763;51.416;5.442;2022-08-21T10:48:29;101535.53;;;24.94;46.18
73516;BME280;61763;51.416;5.442;2022-08-21T10:51:06;101549.47;;;24.37;46.63
73516;BME280;61763;51.416;5.442;2022-08-21T10:53:51;101559.28;;;23.92;48.63
73516;BME280;61763;51.416;5.442;2022-08-21T10:56:27;101547.41;;;24.39;46.29
73516;BME280;61763;51.416;5.442;2022-08-21T10:59:04;101542.66;;;24.69;46.06
73516;BME280;61763;51.416;5.442;2022-08-21T11:06:43;101536.66;;;24.73;45.01
73516;BME280;61763;51.416;5.442;2022-08-21T11:09:16;101533.75;;;24.75;45.91
73516;BME280;61763;51.416;5.442;2022-08-21T11:17:06;101540.16;;;25.03;43.99
73516;BME280;61763;51.416;5.442;2022-08-21T11:19:44;101534.06;;;24.72;44.91
73516;BME280;61763;51.416;5.442;2022-08-21T11:25:20;101523.28;;;24.41;44.06
73516;BME280;61763;51.416;5.442;2022-08-21T11:27:49;101527.75;;;24.52;43.51
73516;BME280;61763;51.416;5.442;2022-08-21T11:30:15;101525.28;;;24.86;44.63
73516;BME280;61763;51.416;5.442;2022-08-21T11:40:34;101509.34;;;26.06;40.38
73516;BME280;61763;51.416;5.442;2022-08-21T11:43:21;101523.75;;;25.74;40.38
73516;BME280;61763;51.416;5.442;2022-08-21T11:45:56;101522.50;;;26.12;39.93
73516;BME280;61763;51.416;5.442;2022-08-21T11:50:57;101529.66;;;26.23;38.43
73516;BME280;61763;51.416;5.442;2022-08-21T11:53:29;101519.72;;;26.38;38.62
73516;BME280;61763;51.416;5.442;2022-08-21T11:56:06;101526.63;;;26.69;38.01
73516;BME280;61763;51.416;5.442;2022-08-21T11:58:43;101528.75;;;26.49;38.47
73516;BME280;61763;51.416;5.442;2022-08-21T12:01:33;101540.28;;;26.36;38.97
73516;BME280;61763;51.416;5.442;2022-08-21T12:04:04;101539.81;;;25.96;39.95
73516;BME280;61763;51.416;5.442;2022-08-21T12:06:33;101533.09;;;25.55;40.64
73516;BME280;61763;51.416;5.442;2022-08-21T12:12:44;101542.13;;;26.01;39.89
73516;BME280;61763;51.416;5.442;2022-08-21T12:14:47;101543.72;;;25.85;40.04
73516;BME280;61763;51.416;5.442;2022-08-21T12:17:21;101539.72;;;25.44;40.12
73516;BME280;61763;51.416;5.442;2022-08-21T12:20:04;101531.38;;;24.90;41.58
73516;BME280;61763;51.416;5.442;2022-08-21T12:22:40;101530.72;;;24.40;42.35
73516;BME280;61763;51.416;5.442;2022-08-21T12:25:08;101530.56;;;24.79;43.15
73516;BME280;61763;51.416;5.442;2022-08-21T12:27:53;101527.91;;;25.51;40.42
73516;BME280;61763;51.416;5.442;2022-08-21T12:32:58;101526.63;;;26.43;38.16
73516;BME280;61763;51.416;5.442;2022-08-21T12:38:18;101528.19;;;25.93;39.04
73516;BME280;61763;51.416;5.442;2022-08-21T12:41:01;101524.22;;;26.13;38.76
73516;BME280;61763;51.416;5.442;2022-08-21T12:43:35;101525.00;;;26.58;37.53
73516;BME280;61763;51.416;5.442;2022-08-21T12:46:03;101523.25;;;26.57;39.28
73516;BME280;61763;51.416;5.442;2022-08-21T12:48:44;101517.88;;;26.55;38.04
73516;BME280;61763;51.416;5.442;2022-08-21T12:51:15;101523.84;;;26.34;38.25
73516;BME280;61763;51.416;5.442;2022-08-21T12:53:45;101520.44;;;26.14;38.16
73516;BME280;61763;51.416;5.442;2022-08-21T12:56:16;101525.72;;;25.81;38.69
73516;BME280;61763;51.416;5.442;2022-08-21T12:59:03;101523.13;;;25.26;41.45
73516;BME280;61763;51.416;5.442;2022-08-21T13:01:36;101519.72;;;25.14;40.48
73516;BME280;61763;51.416;5.442;2022-08-21T13:04:08;101518.28;;;25.10;41.78
73516;BME280;61763;51.416;5.442;2022-08-21T13:06:52;101520.22;;;25.63;41.78
73516;BME280;61763;51.416;5.442;2022-08-21T13:09:20;101523.28;;;25.78;39.93
73516;BME280;61763;51.416;5.442;2022-08-21T13:11:49;101516.06;;;25.41;40.99
73516;BME280;61763;51.416;5.442;2022-08-21T13:14:30;101527.56;;;24.91;42.83
73516;BME280;61763;51.416;5.442;2022-08-21T13:16:59;101527.00;;;24.69;43.23
73516;BME280;61763;51.416;5.442;2022-08-21T13:19:25;101519.00;;;24.28;43.41
73516;BME280;61763;51.416;5.442;2022-08-21T13:21:52;101527.50;;;24.45;44.66
73516;BME280;61763;51.416;5.442;2022-08-21T13:26:43;101517.78;;;25.86;41.08
73516;BME280;61763;51.416;5.442;2022-08-21T13:29:11;101514.06;;;26.22;39.88
73516;BME280;61763;51.416;5.442;2022-08-21T13:31:38;101518.78;;;25.77;41.14
73516;BME280;61763;51.416;5.442;2022-08-21T13:34:05;101513.91;;;25.35;41.82
73516;BME280;61763;51.416;5.442;2022-08-21T13:36:35;101514.19;;;25.14;42.19
73516;BME280;61763;51.416;5.442;2022-08-21T13:39:07;101517.31;;;24.83;41.83
73516;BME280;61763;51.416;5.442;2022-08-21T13:41:35;101515.31;;;25.03;43.03
73516;BME280;61763;51.416;5.442;2022-08-21T13:44:21;101510.72;;;25.66;41.02
73516;BME280;61763;51.416;5.442;2022-08-21T13:46:48;101507.69;;;26.21;39.37
73516;BME280;61763;51.416;5.442;2022-08-21T13:49:17;101507.88;;;26.63;39.81
73516;BME280;61763;51.416;5.442;2022-08-21T13:51:44;101512.84;;;26.51;36.16
73516;BME280;61763;51.416;5.442;2022-08-21T13:54:38;101501.72;;;26.34;35.97
73516;BME280;61763;51.416;5.442;2022-08-21T13:57:00;101507.53;;;26.66;37.55
73516;BME280;61763;51.416;5.442;2022-08-21T13:59:31;101501.50;;;27.30;37.02
73516;BME280;61763;51.416;5.442;2022-08-21T14:04:37;101493.84;;;26.99;35.15
73516;BME280;61763;51.416;5.442;2022-08-21T14:07:18;101494.28;;;27.53;34.99
73516;BME280;61763;51.416;5.442;2022-08-21T14:09:46;101494.09;;;27.63;34.84